Time;durP1;ratioP1;P1;durP2;ratioP2;P2;SDS_P1;SDS_P2;PMS_P1;PMS_P2;Temp;Humidity;BMP_temperature;BMP_pressure;BME280_temperature;BME280_humidity;BME280_pressure;Samples;Min_cycle;Max_cycle;Signal;HPM_P1;HPM_P2
2021/05/21 00:00:56;;;;;;;7.10;1.33;;;16.30;96.70;;;;;;5051650;28;20048;-75
2021/05/21 00:03:25;;;;;;;3.83;1.17;;;16.30;96.70;;;;;;5054655;28;20519;-75
2021/05/21 00:05:55;;;;;;;7.43;1.33;;;16.20;96.70;;;;;;5040014;28;20048;-75
2021/05/21 00:08:25;;;;;;;5.32;1.20;;;16.10;96.70;;;;;;5040568;28;20139;-75
2021/05/21 00:10:54;;;;;;;7.53;1.33;;;16.10;96.70;;;;;;5055655;28;20301;-75
2021/05/21 00:13:25;;;;;;;5.00;1.50;;;16.10;96.70;;;;;;5040410;28;20452;-75
2021/05/21 00:15:54;;;;;;;3.45;1.23;;;16.00;96.70;;;;;;5040439;28;20056;-75
2021/05/21 00:18:24;;;;;;;3.25;1.02;;;15.90;96.70;;;;;;5040423;28;20127;-75
2021/05/21 00:20:53;;;;;;;3.42;1.17;;;16.00;96.70;;;;;;5022906;28;20057;-75
2021/05/21 00:23:23;;;;;;;5.97;1.40;;;16.10;96.70;;;;;;5055066;28;20046;-74
2021/05/21 00:25:53;;;;;;;3.22;1.10;;;16.00;96.70;;;;;;5101653;28;20610;-75
2021/05/21 00:28:22;;;;;;;6.20;1.10;;;16.00;96.70;;;;;;5098299;28;20429;-75
2021/05/21 00:30:53;;;;;;;3.75;0.88;;;15.90;96.70;;;;;;5080809;28;20126;-75
2021/05/21 00:33:22;;;;;;;4.72;1.10;;;16.00;96.70;;;;;;5098624;28;20058;-75
2021/05/21 00:35:52;;;;;;;6.30;1.23;;;16.00;96.70;;;;;;5080658;28;20048;-75
2021/05/21 00:38:21;;;;;;;5.05;1.20;;;15.90;96.70;;;;;;5090706;28;20044;-75
2021/05/21 00:40:51;;;;;;;3.05;0.75;;;15.80;96.70;;;;;;5094195;28;20039;-75
2021/05/21 00:43:21;;;;;;;4.65;0.93;;;15.80;96.70;;;;;;5098305;28;20040;-75
2021/05/21 00:45:50;;;;;;;3.00;1.00;;;15.70;96.70;;;;;;5101971;28;20043;-75
2021/05/21 00:48:23;;;;;;;3.42;0.90;;;15.60;96.70;;;;;;5097913;28;20076;-75
2021/05/21 00:50:58;;;;;;;5.28;0.90;;;15.50;96.70;;;;;;5100385;28;20528;-75
2021/05/21 00:53:33;;;;;;;4.03;0.80;;;15.60;96.70;;;;;;5095628;28;20068;-75
2021/05/21 00:56:03;;;;;;;3.53;1.17;;;15.50;96.70;;;;;;5096652;28;20570;-75
2021/05/21 00:58:33;;;;;;;3.33;0.60;;;15.50;96.70;;;;;;5094861;28;20093;-75
2021/05/21 01:01:02;;;;;;;2.40;1.00;;;15.50;96.70;;;;;;5100429;28;20055;-75
2021/05/21 01:03:31;;;;;;;4.85;0.80;;;15.40;96.70;;;;;;5096872;28;20040;-75
2021/05/21 01:06:00;;;;;;;4.55;1.02;;;15.40;96.70;;;;;;5098918;28;20417;-75
2021/05/21 01:08:29;;;;;;;3.60;1.02;;;15.20;96.70;;;;;;5098992;28;20527;-75
2021/05/21 01:11:05;;;;;;;4.72;0.90;;;15.30;96.70;;;;;;5095493;27;20047;-75
2021/05/21 01:13:34;;;;;;;3.55;1.67;;;15.20;96.70;;;;;;5102263;27;20044;-75
2021/05/21 01:16:04;;;;;;;3.85;1.30;;;15.20;96.70;;;;;;5105809;28;20099;-75
2021/05/21 01:18:33;;;;;;;3.88;0.82;;;15.20;96.70;;;;;;5099606;27;20108;-75
2021/05/21 01:21:03;;;;;;;2.53;0.88;;;15.10;96.70;;;;;;5104878;28;20127;-75
2021/05/21 01:23:31;;;;;;;3.60;0.80;;;15.20;96.70;;;;;;5106795;28;20046;-75
2021/05/21 01:26:00;;;;;;;3.00;0.73;;;15.20;96.70;;;;;;5083862;28;20032;-75
2021/05/21 01:28:28;;;;;;;4.40;0.90;;;15.20;96.70;;;;;;5107022;27;20069;-75
2021/05/21 01:30:57;;;;;;;1.38;0.80;;;15.20;96.70;;;;;;5105223;28;20044;-75
2021/05/21 01:33:26;;;;;;;2.58;0.90;;;15.10;96.70;;;;;;5106351;27;20509;-75
2021/05/21 01:35:55;;;;;;;3.00;0.90;;;15.10;96.70;;;;;;5088669;28;20238;-75
2021/05/21 01:38:25;;;;;;;1.90;0.60;;;15.10;96.70;;;;;;5115571;27;20051;-75
2021/05/21 01:41:03;;;;;;;3.83;0.73;;;15.10;96.70;;;;;;5104896;27;20071;-75
2021/05/21 01:43:32;;;;;;;3.40;1.00;;;15.00;96.70;;;;;;5106019;28;20278;-75
2021/05/21 01:46:01;;;;;;;2.60;0.90;;;14.90;96.70;;;;;;5105561;28;20044;-75
2021/05/21 01:48:30;;;;;;;2.45;0.70;;;14.80;96.70;;;;;;5107245;27;20126;-75
2021/05/21 01:51:03;;;;;;;2.33;0.70;;;14.90;96.70;;;;;;5096506;28;20048;-75
2021/05/21 01:53:36;;;;;;;3.05;1.02;;;14.90;96.70;;;;;;5105080;28;20142;-75
2021/05/21 01:56:07;;;;;;;4.13;0.82;;;14.90;96.70;;;;;;5101530;28;20058;-75
2021/05/21 01:58:36;;;;;;;1.92;0.80;;;14.80;96.70;;;;;;5095508;28;20533;-75
2021/05/21 02:01:06;;;;;;;3.40;0.93;;;14.80;96.70;;;;;;5085092;28;20056;-75
2021/05/21 02:03:36;;;;;;;3.45;1.10;;;14.80;96.70;;;;;;5107619;27;20119;-75
2021/05/21 02:06:06;;;;;;;3.10;0.80;;;14.80;96.70;;;;;;5098529;27;20396;-75
2021/05/21 02:08:36;;;;;;;3.00;0.80;;;14.60;96.70;;;;;;5104495;28;20453;-75
2021/05/21 02:11:06;;;;;;;2.42;0.70;;;14.60;96.70;;;;;;5103786;28;20571;-75
2021/05/21 02:13:36;;;;;;;2.00;0.50;;;14.60;96.70;;;;;;5104960;27;20448;-74
2021/05/21 02:16:05;;;;;;;2.47;0.68;;;14.70;96.70;;;;;;5096397;28;20036;-75
2021/05/21 02:18:35;;;;;;;3.05;0.75;;;14.60;96.70;;;;;;5084810;28;20051;-75
2021/05/21 02:21:05;;;;;;;2.08;0.50;;;14.60;96.70;;;;;;5104203;28;20048;-75
2021/05/21 02:23:36;;;;;;;3.45;0.95;;;14.50;96.70;;;;;;5095138;28;20090;-75
2021/05/21 02:26:06;;;;;;;4.72;1.15;;;14.50;96.70;;;;;;5103519;28;20417;-75
2021/05/21 02:28:35;;;;;;;3.67;0.85;;;14.40;96.70;;;;;;5111841;27;20370;-75
2021/05/21 02:31:05;;;;;;;3.50;1.00;;;14.50;96.70;;;;;;5101450;28;20104;-75
2021/05/21 02:33:43;;;;;;;2.72;0.82;;;14.60;96.70;;;;;;5102019;28;20035;-75
2021/05/21 02:36:26;;;;;;;3.55;1.10;;;14.60;96.70;;;;;;5102836;28;20055;-74
2021/05/21 02:39:12;;;;;;;5.05;0.82;;;14.60;96.70;;;;;;5081660;28;20554;-74
2021/05/21 02:41:47;;;;;;;3.22;0.95;;;14.50;96.70;;;;;;5102367;28;20039;-74
2021/05/21 02:44:17;;;;;;;3.25;0.88;;;14.60;96.70;;;;;;5100158;28;20113;-75
2021/05/21 02:46:46;;;;;;;2.55;0.70;;;14.60;96.70;;;;;;5103459;28;20031;-74
2021/05/21 02:49:19;;;;;;;2.10;0.65;;;14.50;96.70;;;;;;5101980;28;20444;-74
2021/05/21 02:51:52;;;;;;;2.80;0.77;;;14.40;96.70;;;;;;5101928;28;20058;-74
2021/05/21 02:54:22;;;;;;;3.22;1.00;;;14.40;96.70;;;;;;5102346;28;20826;-74
2021/05/21 02:56:50;;;;;;;3.53;0.60;;;14.40;96.70;;;;;;5099019;28;20048;-75
2021/05/21 02:59:18;;;;;;;3.33;0.75;;;14.40;96.70;;;;;;5097377;28;20032;-75
2021/05/21 03:01:46;;;;;;;2.95;1.17;;;14.40;96.70;;;;;;5081854;28;20752;-74
2021/05/21 03:04:15;;;;;;;4.35;1.08;;;14.30;96.70;;;;;;5098091;28;20058;-75
2021/05/21 03:06:45;;;;;;;3.55;1.10;;;14.20;96.70;;;;;;5100359;28;20542;-75
2021/05/21 03:09:26;;;;;;;2.35;0.77;;;14.20;96.70;;;;;;5101291;28;20055;-75
2021/05/21 03:12:10;;;;;;;3.58;0.90;;;14.20;96.70;;;;;;5082283;28;20047;-75
2021/05/21 03:14:52;;;;;;;3.58;0.85;;;14.20;96.70;;;;;;5102686;27;20047;-75
2021/05/21 03:17:31;;;;;;;3.28;1.10;;;14.20;96.70;;;;;;5093449;28;20379;-75
2021/05/21 03:20:01;;;;;;;3.90;1.08;;;14.20;96.70;;;;;;5102562;28;20452;-76
2021/05/21 03:22:30;;;;;;;4.05;0.85;;;14.20;96.70;;;;;;5095589;28;20508;-76
2021/05/21 03:25:03;;;;;;;6.32;1.00;;;14.30;96.70;;;;;;5102034;28;20473;-75
2021/05/21 03:27:34;;;;;;;3.25;0.80;;;14.30;96.70;;;;;;5095995;28;20039;-75
2021/05/21 03:30:07;;;;;;;3.22;0.93;;;14.20;96.70;;;;;;5103811;28;20058;-75
2021/05/21 03:32:36;;;;;;;3.70;0.95;;;14.30;96.70;;;;;;5100460;28;20108;-75
2021/05/21 03:35:08;;;;;;;4.82;1.20;;;14.20;96.70;;;;;;5102539;28;20126;-75
2021/05/21 03:37:43;;;;;;;3.20;0.73;;;14.20;96.70;;;;;;5096724;28;20059;-75
2021/05/21 03:40:14;;;;;;;5.25;1.10;;;14.10;96.70;;;;;;5099319;28;20043;-75
2021/05/21 03:42:44;;;;;;;4.75;0.80;;;14.00;96.70;;;;;;5093651;28;20059;-75
2021/05/21 03:45:14;;;;;;;4.43;0.88;;;14.10;96.70;;;;;;5097364;28;20036;-75
2021/05/21 03:47:46;;;;;;;2.72;0.90;;;14.00;96.70;;;;;;5090731;28;20308;-75
2021/05/21 03:50:19;;;;;;;2.00;0.70;;;14.00;96.70;;;;;;5099166;28;20047;-75
2021/05/21 03:52:49;;;;;;;3.47;1.02;;;13.90;96.70;;;;;;5093029;28;20271;-75
2021/05/21 03:55:19;;;;;;;2.03;1.05;;;13.90;96.70;;;;;;5081543;28;20586;-75
2021/05/21 03:57:48;;;;;;;3.17;1.20;;;13.70;96.70;;;;;;5101413;28;20452;-75
2021/05/21 04:00:19;;;;;;;3.13;0.98;;;13.60;96.70;;;;;;5101391;28;20386;-76
2021/05/21 04:02:50;;;;;;;4.22;1.13;;;13.70;96.70;;;;;;5102672;28;20040;-76
2021/05/21 04:05:21;;;;;;;4.80;0.90;;;13.70;96.70;;;;;;5099752;28;20404;-75
2021/05/21 04:07:51;;;;;;;2.38;0.80;;;13.70;96.70;;;;;;5101389;28;20044;-75
2021/05/21 04:10:21;;;;;;;1.65;0.90;;;13.60;96.70;;;;;;5099490;28;20048;-76
2021/05/21 04:12:50;;;;;;;2.22;0.65;;;13.70;96.70;;;;;;5103028;28;20039;-75
2021/05/21 04:15:20;;;;;;;4.82;0.80;;;13.70;96.70;;;;;;5099899;27;20501;-75
2021/05/21 04:17:50;;;;;;;4.32;0.85;;;13.70;96.70;;;;;;5093203;28;20036;-76
2021/05/21 04:20:19;;;;;;;2.85;0.90;;;13.70;96.70;;;;;;5096125;28;20047;-75
2021/05/21 04:22:49;;;;;;;2.28;1.08;;;13.80;96.70;;;;;;5094854;28;20031;-76
2021/05/21 04:25:19;;;;;;;1.92;0.85;;;13.80;96.70;;;;;;5096777;28;20146;-75
2021/05/21 04:27:50;;;;;;;3.10;0.68;;;13.90;96.70;;;;;;5102660;28;20039;-75
2021/05/21 04:30:22;;;;;;;2.50;0.82;;;13.90;96.70;;;;;;5080403;28;20420;-75
2021/05/21 04:32:53;;;;;;;3.15;1.00;;;13.90;96.70;;;;;;5099178;28;20634;-75
2021/05/21 04:35:22;;;;;;;2.67;0.70;;;13.90;96.70;;;;;;5099662;27;20102;-75
2021/05/21 04:37:52;;;;;;;1.73;0.85;;;14.00;96.70;;;;;;5086715;28;20047;-75
2021/05/21 04:40:20;;;;;;;2.30;0.90;;;13.90;96.70;;;;;;5063524;28;20135;-75
2021/05/21 04:42:50;;;;;;;3.72;1.10;;;13.90;96.70;;;;;;5080191;28;20311;-75
2021/05/21 04:45:18;;;;;;;1.60;0.85;;;13.90;96.70;;;;;;5100913;28;20386;-75
2021/05/21 04:47:47;;;;;;;3.15;1.00;;;13.90;96.70;;;;;;5096942;28;20040;-75
2021/05/21 04:50:15;;;;;;;4.03;0.88;;;14.00;96.70;;;;;;5100104;28;20046;-76
2021/05/21 04:52:44;;;;;;;1.75;0.80;;;14.00;96.70;;;;;;5097961;28;20428;-76
2021/05/21 04:55:12;;;;;;;3.90;0.90;;;14.00;96.70;;;;;;5099551;28;20545;-75
2021/05/21 04:57:42;;;;;;;3.17;1.08;;;13.90;96.70;;;;;;5096515;28;20028;-75
2021/05/21 05:00:12;;;;;;;3.88;0.90;;;13.90;96.70;;;;;;5098748;28;20085;-75
2021/05/21 05:02:41;;;;;;;2.90;1.10;;;14.00;96.70;;;;;;5071310;28;20052;-76
2021/05/21 05:05:10;;;;;;;3.63;1.00;;;14.00;96.70;;;;;;5098280;28;20061;-75
2021/05/21 05:07:38;;;;;;;3.35;1.02;;;14.00;96.70;;;;;;5095303;28;20043;-76
2021/05/21 05:10:07;;;;;;;3.78;0.90;;;14.10;96.70;;;;;;5082828;28;20085;-75
2021/05/21 05:12:35;;;;;;;1.95;0.85;;;14.10;96.70;;;;;;5099994;28;20071;-75
2021/05/21 05:15:05;;;;;;;3.45;0.93;;;14.10;96.70;;;;;;5098390;28;20035;-76
2021/05/21 05:17:35;;;;;;;4.07;1.05;;;14.20;96.70;;;;;;5097944;28;20473;-76
2021/05/21 05:20:04;;;;;;;2.72;1.20;;;14.20;96.70;;;;;;5100715;28;20414;-75
2021/05/21 05:22:33;;;;;;;3.10;1.50;;;14.20;96.70;;;;;;5082626;28;20443;-76
2021/05/21 05:25:02;;;;;;;4.20;1.40;;;14.40;96.70;;;;;;5096101;28;20106;-75
2021/05/21 05:27:30;;;;;;;5.18;1.90;;;14.50;96.70;;;;;;5095078;28;20493;-75
2021/05/21 05:29:59;;;;;;;3.22;1.70;;;14.60;96.70;;;;;;5100479;28;20461;-76
2021/05/21 05:32:27;;;;;;;5.28;1.95;;;14.50;96.70;;;;;;5098573;28;20519;-75
2021/05/21 05:34:58;;;;;;;4.35;1.92;;;14.50;96.70;;;;;;5098418;28;20040;-75
2021/05/21 05:37:27;;;;;;;3.47;1.92;;;14.50;96.70;;;;;;5097143;28;20050;-75
2021/05/21 05:39:55;;;;;;;5.80;1.48;;;14.50;96.70;;;;;;5102212;28;20433;-75
2021/05/21 05:42:24;;;;;;;4.72;1.10;;;14.50;96.70;;;;;;5097828;28;20035;-75
2021/05/21 05:44:53;;;;;;;2.50;1.30;;;14.70;96.70;;;;;;5099676;28;20128;-75
2021/05/21 05:47:22;;;;;;;3.63;1.00;;;14.70;96.70;;;;;;5088164;28;20102;-75
2021/05/21 05:49:50;;;;;;;6.20;1.33;;;14.80;96.70;;;;;;5097222;28;20070;-76
2021/05/21 05:52:20;;;;;;;4.00;1.35;;;14.80;96.70;;;;;;5072748;28;20056;-75
2021/05/21 05:54:48;;;;;;;4.68;1.20;;;14.80;96.70;;;;;;5100088;28;20052;-76
2021/05/21 05:57:17;;;;;;;6.30;1.52;;;14.90;96.70;;;;;;5098006;28;20028;-76
2021/05/21 05:59:45;;;;;;;3.92;1.27;;;14.90;96.70;;;;;;5098794;28;20669;-74
2021/05/21 06:02:13;;;;;;;3.58;1.30;;;14.90;96.70;;;;;;5103090;28;20283;-75
2021/05/21 06:04:42;;;;;;;5.55;1.33;;;14.90;96.70;;;;;;5099415;27;20035;-75
2021/05/21 06:07:10;;;;;;;6.68;1.80;;;15.10;96.70;;;;;;5094505;28;20043;-75
2021/05/21 06:09:40;;;;;;;6.97;1.48;;;15.10;96.70;;;;;;5082229;28;20572;-75
2021/05/21 06:12:10;;;;;;;5.82;1.30;;;15.30;96.70;;;;;;5101558;28;20115;-75
2021/05/21 06:14:38;;;;;;;7.55;1.23;;;15.40;96.70;;;;;;5103389;27;20128;-75
2021/05/21 06:17:06;;;;;;;5.13;1.45;;;15.60;96.70;;;;;;5103492;28;20040;-75
2021/05/21 06:19:35;;;;;;;3.42;1.30;;;15.70;96.70;;;;;;5099725;28;20048;-75
2021/05/21 06:22:04;;;;;;;3.03;1.20;;;15.70;96.70;;;;;;5102655;28;20043;-76
2021/05/21 06:24:32;;;;;;;3.47;0.82;;;15.70;96.70;;;;;;5101741;28;20055;-75
2021/05/21 06:29:49;;;;;;;5.65;1.30;;;15.60;96.70;;;;;;5091219;28;20051;-75
2021/05/21 06:32:18;;;;;;;5.70;1.20;;;15.70;96.70;;;;;;5102713;28;20036;-75
2021/05/21 06:34:46;;;;;;;6.22;1.50;;;15.70;96.70;;;;;;5099430;28;20035;-75
2021/05/21 06:37:23;;;;;;;3.55;1.13;;;15.80;96.70;;;;;;5105216;28;20117;-75
2021/05/21 06:40:09;;;;;;;5.45;1.35;;;15.80;96.70;;;;;;5102400;28;20039;-75
2021/05/21 06:42:39;;;;;;;5.97;1.40;;;15.90;96.70;;;;;;5101915;28;20035;-75
2021/05/21 06:45:08;;;;;;;3.38;1.17;;;15.80;96.70;;;;;;5095027;28;20649;-75
2021/05/21 06:47:37;;;;;;;5.43;1.25;;;16.00;96.70;;;;;;5099860;28;22395;-75
2021/05/21 06:50:06;;;;;;;3.40;0.93;;;16.00;96.70;;;;;;5094922;28;20159;-75
2021/05/21 06:52:35;;;;;;;3.95;1.00;;;16.10;96.70;;;;;;5103230;28;20027;-75
2021/05/21 06:55:05;;;;;;;2.63;0.80;;;16.10;96.70;;;;;;5118642;27;20653;-75
2021/05/21 06:57:35;;;;;;;5.03;1.23;;;16.10;96.70;;;;;;5099935;28;20497;-74
2021/05/21 07:00:05;;;;;;;6.05;1.05;;;16.30;96.70;;;;;;5102949;28;20067;-75
2021/05/21 07:02:33;;;;;;;3.85;0.98;;;16.40;96.70;;;;;;5098586;28;20036;-74
2021/05/21 07:05:02;;;;;;;3.72;0.85;;;16.60;96.70;;;;;;5103127;28;20040;-74
2021/05/21 07:07:31;;;;;;;4.85;1.33;;;16.60;96.70;;;;;;5101498;27;20043;-75
2021/05/21 07:10:00;;;;;;;3.97;1.02;;;16.60;96.70;;;;;;5096304;28;20522;-74
2021/05/21 07:12:28;;;;;;;3.45;1.23;;;16.80;96.70;;;;;;5096789;28;20582;-75
2021/05/21 07:14:57;;;;;;;1.20;0.70;;;16.90;96.70;;;;;;5105254;27;20043;-75
2021/05/21 07:17:26;;;;;;;4.30;0.90;;;17.10;96.70;;;;;;5100660;28;20133;-74
2021/05/21 07:19:55;;;;;;;4.03;1.02;;;17.10;96.70;;;;;;5085750;28;20537;-74
2021/05/21 07:22:23;;;;;;;5.55;0.82;;;17.20;96.70;;;;;;5100280;28;20128;-75
2021/05/21 07:24:51;;;;;;;3.35;1.17;;;17.20;96.70;;;;;;5100945;28;20054;-74
2021/05/21 07:27:19;;;;;;;9.32;1.45;;;17.20;96.70;;;;;;5099281;28;20465;-74
2021/05/21 07:29:47;;;;;;;3.50;0.70;;;17.20;96.70;;;;;;5102431;28;20521;-74
2021/05/21 07:32:15;;;;;;;4.50;1.02;;;17.20;96.70;;;;;;5095783;28;20055;-74
2021/05/21 07:34:44;;;;;;;4.78;1.08;;;17.20;96.70;;;;;;5080634;28;20439;-74
2021/05/21 07:37:12;;;;;;;5.13;1.15;;;17.20;96.70;;;;;;5092629;28;20074;-74
2021/05/21 07:39:41;;;;;;;3.75;1.00;;;17.20;96.70;;;;;;5101834;28;20084;-74
2021/05/21 07:42:09;;;;;;;1.42;0.77;;;17.30;96.70;;;;;;5098964;28;20043;-75
2021/05/21 07:44:38;;;;;;;4.70;0.98;;;17.30;96.70;;;;;;5101959;28;20067;-75
2021/05/21 07:47:06;;;;;;;4.53;1.05;;;17.30;96.70;;;;;;5101850;27;20039;-74
2021/05/21 07:49:34;;;;;;;4.85;1.10;;;17.40;96.70;;;;;;5078698;28;20147;-75
2021/05/21 07:52:04;;;;;;;4.10;1.30;;;17.40;96.70;;;;;;5099450;28;20416;-75
2021/05/21 07:54:32;;;;;;;3.97;1.17;;;17.50;96.70;;;;;;5101772;28;20470;-74
2021/05/21 07:57:00;;;;;;;4.63;1.27;;;17.50;96.70;;;;;;5097772;28;20047;-74
2021/05/21 07:59:28;;;;;;;5.10;1.45;;;17.60;96.70;;;;;;5098983;28;20067;-74
2021/05/21 08:01:58;;;;;;;5.32;2.38;;;17.60;96.70;;;;;;5094484;28;20511;-74
2021/05/21 08:04:26;;;;;;;6.90;2.33;;;17.60;96.70;;;;;;5099502;28;20154;-74
2021/05/21 08:06:54;;;;;;;7.50;2.65;;;17.60;96.70;;;;;;5099687;28;20513;-75
2021/05/21 08:09:23;;;;;;;4.70;2.20;;;17.60;96.70;;;;;;5094863;28;20056;-74
2021/05/21 08:11:51;;;;;;;7.15;3.38;;;17.60;96.70;;;;;;5102193;28;20041;-75
2021/05/21 08:14:21;;;;;;;11.23;4.90;;;17.70;96.70;;;;;;5103952;28;20103;-74
2021/05/21 08:16:48;;;;;;;9.73;4.82;;;17.80;96.70;;;;;;5095119;28;20042;-75
2021/05/21 08:19:29;;;;;;;6.45;3.20;;;17.90;96.70;;;;;;5100226;28;20046;-75
2021/05/21 08:21:57;;;;;;;12.77;7.80;;;18.00;96.70;;;;;;5095457;28;20048;-74
2021/05/21 08:24:26;;;;;;;17.50;8.80;;;18.10;96.70;;;;;;5097234;28;20112;-74
2021/05/21 08:26:54;;;;;;;24.42;13.02;;;18.20;96.70;;;;;;5083763;28;20128;-75
2021/05/21 08:29:22;;;;;;;30.95;18.08;;;18.30;96.70;;;;;;5094805;28;20043;-75
2021/05/21 08:31:50;;;;;;;30.10;18.85;;;18.40;96.70;;;;;;5102892;28;20040;-75
2021/05/21 08:34:18;;;;;;;29.52;15.75;;;18.40;96.70;;;;;;5077850;28;20044;-75
2021/05/21 08:36:47;;;;;;;21.13;12.77;;;18.30;96.70;;;;;;5098633;28;20059;-75
2021/05/21 08:39:15;;;;;;;17.55;9.68;;;18.30;96.70;;;;;;5095988;28;20093;-75
2021/05/21 08:41:50;;;;;;;12.73;6.50;;;18.20;96.70;;;;;;5082474;28;20326;-75
2021/05/21 08:44:18;;;;;;;11.82;6.13;;;18.30;96.70;;;;;;5094641;28;20521;-75
2021/05/21 08:46:46;;;;;;;11.20;5.78;;;18.30;96.70;;;;;;5100687;28;20040;-74
2021/05/21 08:49:16;;;;;;;14.52;7.65;;;18.40;96.70;;;;;;5085309;28;20050;-74
2021/05/21 08:51:44;;;;;;;13.23;5.32;;;18.60;96.70;;;;;;5095220;28;20056;-74
2021/05/21 08:54:33;;;;;;;7.57;3.83;;;18.70;96.70;;;;;;5097678;28;20542;-74
2021/05/21 08:57:06;;;;;;;8.93;4.15;;;18.70;96.70;;;;;;5080293;28;20104;-74
2021/05/21 08:59:34;;;;;;;8.70;4.63;;;18.70;96.70;;;;;;5098019;28;20049;-74
2021/05/21 09:02:03;;;;;;;16.88;8.50;;;18.90;96.70;;;;;;5081427;28;20144;-74
2021/05/21 09:04:46;;;;;;;15.32;8.80;;;19.10;96.70;;;;;;5101535;28;20133;-74
2021/05/21 09:07:19;;;;;;;31.90;19.65;;;19.10;96.70;;;;;;5100761;28;20133;-74
2021/05/21 09:09:48;;;;;;;21.02;12.93;;;19.10;96.70;;;;;;5082359;28;20170;-75
2021/05/21 09:12:20;;;;;;;29.63;16.92;;;19.10;96.70;;;;;;5099233;28;20035;-74
2021/05/21 09:15:10;;;;;;;16.48;8.07;;;19.10;96.70;;;;;;5091161;28;20363;-75
2021/05/21 09:17:54;;;;;;;11.45;6.20;;;19.20;96.70;;;;;;5096671;28;20050;-75
2021/05/21 09:20:27;;;;;;;13.85;7.18;;;19.30;95.20;;;;;;5096239;28;20047;-75
2021/05/21 09:23:08;;;;;;;14.60;7.72;;;19.30;95.60;;;;;;5096380;28;20050;-75
2021/05/21 09:25:42;;;;;;;14.18;7.05;;;19.30;95.00;;;;;;5099252;28;20051;-75
2021/05/21 09:28:33;;;;;;;10.18;5.60;;;19.40;95.20;;;;;;5094927;28;20515;-75
2021/05/21 09:31:10;;;;;;;12.73;6.93;;;19.60;95.00;;;;;;5102890;27;20064;-75
2021/05/21 09:33:40;;;;;;;12.25;6.50;;;19.50;94.30;;;;;;5105724;28;20119;-75
2021/05/21 09:36:09;;;;;;;11.98;7.15;;;19.60;94.60;;;;;;5103352;28;20112;-75
2021/05/21 09:38:48;;;;;;;12.27;6.72;;;19.50;94.50;;;;;;5100591;28;20590;-75
2021/05/21 09:41:17;;;;;;;15.40;7.47;;;19.40;94.50;;;;;;5096312;28;20049;-75
2021/05/21 09:43:50;;;;;;;15.65;7.25;;;19.40;94.60;;;;;;5104270;28;20485;-75
2021/05/21 09:46:19;;;;;;;13.77;7.63;;;19.60;94.70;;;;;;5101210;28;20047;-75
2021/05/21 09:48:48;;;;;;;12.63;7.03;;;19.80;95.10;;;;;;5100763;28;20048;-75
2021/05/21 09:51:19;;;;;;;12.70;6.50;;;19.80;94.20;;;;;;5097001;28;20134;-75
2021/05/21 09:53:58;;;;;;;9.15;5.28;;;19.70;94.00;;;;;;5099878;28;20734;-75
2021/05/21 09:56:26;;;;;;;12.88;5.38;;;19.90;94.20;;;;;;5102317;27;20136;-75
2021/05/21 09:58:59;;;;;;;10.35;5.57;;;20.20;93.70;;;;;;5104479;28;20044;-74
2021/05/21 10:01:27;;;;;;;12.27;5.22;;;20.40;93.00;;;;;;5097955;28;20044;-75
2021/05/21 10:03:57;;;;;;;12.60;5.95;;;20.40;92.50;;;;;;5103424;28;20113;-75
2021/05/21 10:06:26;;;;;;;8.20;3.88;;;20.40;91.50;;;;;;5098187;28;20067;-76
2021/05/21 10:08:56;;;;;;;8.60;4.07;;;20.60;91.70;;;;;;5104007;28;20390;-75
2021/05/21 10:11:24;;;;;;;8.30;3.42;;;20.60;91.00;;;;;;5099150;28;20501;-76
2021/05/21 10:13:53;;;;;;;6.78;3.65;;;20.80;91.50;;;;;;5103065;27;20043;-75
2021/05/21 10:16:22;;;;;;;6.47;2.65;;;21.00;91.40;;;;;;5100401;28;20050;-75
2021/05/21 10:18:52;;;;;;;6.90;2.58;;;21.10;90.40;;;;;;5103723;28;20315;-75
2021/05/21 10:21:22;;;;;;;6.03;2.50;;;21.20;90.30;;;;;;5098127;28;20327;-75
2021/05/21 10:23:53;;;;;;;6.32;2.28;;;21.10;90.20;;;;;;5103227;28;20089;-75
2021/05/21 10:26:32;;;;;;;5.80;2.55;;;21.10;90.30;;;;;;5101316;28;20050;-75
2021/05/21 10:29:04;;;;;;;5.30;2.13;;;21.20;90.10;;;;;;5102073;28;20174;-75
2021/05/21 10:31:33;;;;;;;6.15;2.25;;;21.20;90.70;;;;;;5100026;28;20377;-75
2021/05/21 10:34:13;;;;;;;4.75;2.38;;;21.50;89.80;;;;;;5102673;28;20139;-75
2021/05/21 10:37:19;;;;;;;6.53;2.17;;;21.40;89.60;;;;;;5099736;28;20054;-75
2021/05/21 10:40:09;;;;;;;8.63;2.67;;;21.80;89.00;;;;;;5094205;28;20051;-75
2021/05/21 10:42:57;;;;;;;8.13;2.40;;;21.90;88.50;;;;;;5102158;28;20058;-75
2021/05/21 10:45:55;;;;;;;5.55;2.22;;;22.00;90.80;;;;;;5073506;28;20051;-75
2021/05/21 10:48:28;;;;;;;7.35;2.17;;;22.10;89.50;;;;;;5100178;28;20044;-75
2021/05/21 10:51:11;;;;;;;7.47;2.17;;;22.10;88.90;;;;;;5092951;28;20061;-75
2021/05/21 10:53:40;;;;;;;7.25;2.30;;;22.00;88.70;;;;;;5090768;28;20077;-75
2021/05/21 10:56:08;;;;;;;6.18;1.80;;;22.10;89.90;;;;;;5103149;28;20051;-75
2021/05/21 10:58:43;;;;;;;4.97;1.55;;;22.10;90.00;;;;;;5093061;28;20113;-74
2021/05/21 11:01:20;;;;;;;7.47;2.25;;;22.30;90.00;;;;;;5086467;28;20039;-75
2021/05/21 11:04:08;;;;;;;6.47;2.00;;;22.60;88.90;;;;;;5080067;28;20097;-74
2021/05/21 11:06:48;;;;;;;4.65;1.30;;;22.70;89.00;;;;;;5113624;27;20130;-75
2021/05/21 11:09:19;;;;;;;4.00;1.35;;;22.50;87.90;;;;;;5095250;28;20075;-74
2021/05/21 11:11:52;;;;;;;6.05;1.27;;;22.70;89.30;;;;;;5100136;28;20127;-76
2021/05/21 11:14:32;;;;;;;7.38;1.73;;;22.80;88.40;;;;;;5101214;27;20511;-76
2021/05/21 11:17:12;;;;;;;3.97;1.00;;;22.80;87.70;;;;;;5094978;28;20092;-76
2021/05/21 11:19:49;;;;;;;2.45;0.80;;;23.00;86.80;;;;;;5100950;28;20036;-76
2021/05/21 11:22:30;;;;;;;2.92;1.05;;;23.00;86.00;;;;;;5083804;28;20040;-76
2021/05/21 11:25:01;;;;;;;3.13;0.80;;;23.00;82.80;;;;;;5100882;28;20096;-76
2021/05/21 11:27:32;;;;;;;6.03;1.23;;;23.10;84.00;;;;;;5101009;28;20044;-76
2021/05/21 11:30:04;;;;;;;4.63;0.82;;;23.30;82.60;;;;;;5102694;28;20031;-76
2021/05/21 11:32:33;;;;;;;3.58;0.80;;;23.20;80.30;;;;;;5101791;28;20059;-75
2021/05/21 11:35:03;;;;;;;2.75;0.90;;;23.00;80.20;;;;;;5101020;28;20424;-76
2021/05/21 11:37:32;;;;;;;3.22;0.80;;;22.90;82.30;;;;;;5102112;28;20122;-76
2021/05/21 11:40:03;;;;;;;5.13;0.90;;;22.70;81.30;;;;;;5102199;28;20079;-76
2021/05/21 11:42:35;;;;;;;4.03;0.98;;;23.00;84.60;;;;;;5098958;28;20035;-76
2021/05/21 11:45:06;;;;;;;3.97;1.13;;;23.00;84.60;;;;;;5102280;28;20081;-76
2021/05/21 11:47:40;;;;;;;4.72;0.98;;;23.10;84.50;;;;;;5094984;28;20059;-76
2021/05/21 11:50:11;;;;;;;5.32;0.70;;;23.20;83.20;;;;;;5084269;28;20717;-76
2021/05/21 11:52:39;;;;;;;1.48;0.75;;;23.30;77.00;;;;;;5101264;28;20050;-76
2021/05/21 11:55:09;;;;;;;2.53;0.68;;;23.40;76.20;;;;;;5100743;28;20097;-76
2021/05/21 11:57:38;;;;;;;4.93;0.75;;;23.40;75.80;;;;;;5106012;27;20552;-77
2021/05/21 12:00:08;;;;;;;6.45;0.85;;;23.50;76.10;;;;;;5099274;28;20046;-78
2021/05/21 12:02:40;;;;;;;2.28;0.55;;;23.40;75.10;;;;;;5101071;28;20122;-77
2021/05/21 12:05:11;;;;;;;3.20;0.73;;;23.60;74.90;;;;;;5096945;28;20469;-77
2021/05/21 12:07:40;;;;;;;4.15;0.80;;;23.40;75.40;;;;;;5098323;28;20039;-77
2021/05/21 12:10:10;;;;;;;5.15;0.55;;;23.50;75.20;;;;;;5097456;28;20071;-77
2021/05/21 12:12:38;;;;;;;9.07;1.48;;;23.60;75.00;;;;;;5100170;28;20158;-77
2021/05/21 12:15:09;;;;;;;3.45;0.65;;;23.60;75.60;;;;;;5104066;27;20408;-77
2021/05/21 12:17:42;;;;;;;5.00;0.75;;;23.60;77.00;;;;;;5103365;28;20127;-77
2021/05/21 12:20:14;;;;;;;3.92;1.02;;;23.60;76.20;;;;;;5098728;28;20357;-77
2021/05/21 12:22:58;;;;;;;3.42;0.60;;;23.60;78.00;;;;;;5097707;28;20048;-78
2021/05/21 12:25:29;;;;;;;4.60;0.82;;;23.80;78.70;;;;;;5091923;28;20140;-77
2021/05/21 12:27:59;;;;;;;3.42;0.60;;;24.00;79.30;;;;;;5083296;28;20050;-78
2021/05/21 12:30:29;;;;;;;5.72;1.10;;;24.00;79.10;;;;;;5099526;28;20054;-77
2021/05/21 12:32:59;;;;;;;5.97;0.98;;;24.00;79.70;;;;;;5100153;28;20096;-77
2021/05/21 12:35:39;;;;;;;2.80;0.50;;;23.60;80.10;;;;;;5096538;28;20043;-77
2021/05/21 12:38:09;;;;;;;7.47;0.80;;;23.70;80.90;;;;;;5097638;28;21148;-77
2021/05/21 12:40:50;;;;;;;1.83;0.60;;;24.00;81.20;;;;;;5095316;28;20100;-77
2021/05/21 12:43:18;;;;;;;4.15;0.52;;;23.90;80.70;;;;;;5098335;28;20043;-77
2021/05/21 12:46:02;;;;;;;4.45;1.00;;;23.90;81.10;;;;;;5100639;28;20757;-78
2021/05/21 12:48:39;;;;;;;4.03;1.20;;;23.80;80.90;;;;;;5094403;27;20052;-78
2021/05/21 12:51:17;;;;;;;7.60;1.00;;;23.90;81.30;;;;;;5095638;28;20261;-77
2021/05/21 12:53:46;;;;;;;5.88;0.90;;;23.80;81.40;;;;;;5094610;28;20515;-78
2021/05/21 12:56:30;;;;;;;7.07;1.30;;;23.90;80.90;;;;;;5099280;28;20432;-78
2021/05/21 12:59:01;;;;;;;6.22;1.00;;;24.10;82.20;;;;;;5097657;28;20073;-78
2021/05/21 13:01:31;;;;;;;6.15;1.30;;;24.20;80.20;;;;;;5099597;28;20050;-78
2021/05/21 13:04:00;;;;;;;4.90;1.17;;;24.30;79.50;;;;;;5096424;28;20446;-78
2021/05/21 13:06:32;;;;;;;4.85;1.17;;;24.20;80.40;;;;;;5083969;28;20048;-78
2021/05/21 13:09:03;;;;;;;9.15;1.35;;;24.30;80.80;;;;;;5096245;28;20078;-78